createdAt,value
2019-02-02T00:01:59.763Z,2.67
2019-02-02T00:04:30.335Z,2.67
2019-02-02T00:07:01.825Z,2.67
2019-02-02T00:09:32.408Z,2.66
2019-02-02T00:12:02.982Z,2.66
2019-02-02T00:14:33.569Z,2.66
2019-02-02T00:17:04.092Z,2.69
2019-02-02T00:19:34.653Z,2.67
2019-02-02T00:22:06.929Z,2.68
2019-02-02T00:24:37.454Z,2.69
2019-02-02T00:27:08.393Z,2.69
2019-02-02T00:29:38.944Z,2.69
2019-02-02T00:32:09.537Z,2.68
2019-02-02T00:34:40.095Z,2.69
2019-02-02T00:37:10.634Z,2.70
2019-02-02T00:39:38.706Z,2.70
2019-02-02T00:42:10.821Z,2.72
2019-02-02T00:44:41.366Z,2.72
2019-02-02T00:47:11.952Z,2.72
2019-02-02T00:49:45.504Z,2.70
2019-02-02T00:52:16.170Z,2.69
2019-02-02T00:54:46.768Z,2.69
2019-02-02T00:57:17.304Z,2.69
2019-02-02T00:59:47.790Z,2.71
2019-02-02T01:02:19.824Z,2.69
2019-02-02T01:04:50.349Z,2.70
2019-02-02T01:07:21.095Z,2.72
2019-02-02T01:09:51.625Z,2.72
2019-02-02T01:12:22.238Z,2.71
2019-02-02T01:14:52.765Z,2.64
2019-02-02T01:17:23.352Z,2.62
2019-02-02T01:19:53.902Z,2.59
2019-02-02T01:22:24.514Z,2.57
2019-02-02T01:24:55.091Z,2.56
2019-02-02T01:27:25.663Z,2.57
2019-02-02T01:29:56.215Z,2.52
2019-02-02T01:32:26.778Z,2.50
2019-02-02T01:34:57.291Z,2.48
2019-02-02T01:37:27.853Z,2.48
2019-02-02T01:39:58.381Z,2.48
2019-02-02T01:42:28.963Z,2.48
2019-02-02T01:44:59.544Z,2.46
2019-02-02T01:47:30.096Z,2.43
2019-02-02T01:50:00.634Z,2.45
2019-02-02T01:52:31.173Z,2.44
2019-02-02T01:55:01.757Z,2.42
2019-02-02T01:57:32.365Z,2.44
2019-02-02T02:00:02.897Z,2.44
2019-02-02T02:02:33.466Z,2.45
2019-02-02T02:05:04.002Z,2.44
2019-02-02T02:07:34.555Z,2.46
2019-02-02T02:10:06.429Z,2.47
2019-02-02T02:12:36.980Z,2.43
2019-02-02T02:15:09.900Z,2.44
2019-02-02T02:17:40.589Z,2.47
2019-02-02T02:20:12.971Z,2.46
2019-02-02T02:22:43.509Z,2.45
2019-02-02T02:25:16.623Z,2.48
2019-02-02T02:27:47.379Z,2.51
2019-02-02T02:30:22.747Z,2.51
2019-02-02T02:32:54.289Z,2.51
2019-02-02T02:35:24.771Z,2.51
2019-02-02T02:37:55.337Z,2.49
2019-02-02T02:40:26.290Z,2.49
2019-02-02T02:42:56.852Z,2.51
2019-02-02T02:45:27.406Z,2.50
2019-02-02T02:47:57.931Z,2.48
2019-02-02T02:50:28.469Z,2.51
2019-02-02T02:52:59.067Z,2.51
2019-02-02T02:55:29.565Z,2.53
2019-02-02T02:58:00.113Z,2.56
2019-02-02T03:00:30.630Z,2.59
2019-02-02T03:03:01.229Z,2.59
2019-02-02T03:05:31.833Z,2.58
2019-02-02T03:08:02.384Z,2.54
2019-02-02T03:10:32.927Z,2.54
2019-02-02T03:13:03.450Z,2.56
2019-02-02T03:15:33.998Z,2.54
2019-02-02T03:18:04.670Z,2.56
2019-02-02T03:20:35.198Z,2.60
2019-02-02T03:23:05.726Z,2.57
2019-02-02T03:25:36.262Z,2.54
2019-02-02T03:28:06.822Z,2.58
2019-02-02T03:30:37.369Z,2.60
2019-02-02T03:33:07.965Z,2.59
2019-02-02T03:35:38.495Z,2.59
2019-02-02T03:38:09.084Z,2.59
2019-02-02T03:40:39.637Z,2.56
2019-02-02T03:43:10.336Z,2.58
2019-02-02T03:45:41.801Z,2.57
2019-02-02T03:48:12.315Z,2.56
2019-02-02T03:50:42.839Z,2.55
2019-02-02T03:53:13.396Z,2.54
2019-02-02T03:55:44.281Z,2.56
2019-02-02T03:58:14.836Z,2.57
2019-02-02T04:00:45.397Z,2.54
2019-02-02T04:03:16.110Z,2.54
2019-02-02T04:05:46.641Z,2.56
2019-02-02T04:08:17.232Z,2.54
2019-02-02T04:10:47.762Z,2.52
2019-02-02T04:13:18.301Z,2.51
2019-02-02T04:15:48.846Z,2.49
2019-02-02T04:18:19.403Z,2.49
2019-02-02T04:20:50.001Z,2.50
2019-02-02T04:23:20.538Z,2.50
2019-02-02T04:25:51.043Z,2.49
2019-02-02T04:28:21.544Z,2.51
2019-02-02T04:30:52.119Z,2.51
2019-02-02T04:33:23.022Z,2.53
2019-02-02T04:35:53.655Z,2.51
2019-02-02T04:38:24.240Z,2.51
2019-02-02T04:40:54.746Z,2.50
2019-02-02T04:43:25.367Z,2.50
2019-02-02T04:45:56.039Z,2.52
2019-02-02T04:48:26.613Z,2.51
2019-02-02T04:50:57.119Z,2.52
2019-02-02T04:53:27.676Z,2.53
2019-02-02T04:55:58.312Z,2.53
2019-02-02T04:58:28.869Z,2.53
2019-02-02T05:00:59.443Z,2.51
2019-02-02T05:03:30.033Z,2.47
2019-02-02T05:06:00.566Z,2.47
2019-02-02T05:08:31.178Z,2.47
2019-02-02T05:11:01.671Z,2.49
2019-02-02T05:13:32.199Z,2.51
2019-02-02T05:16:02.751Z,2.50
2019-02-02T05:18:33.341Z,2.52
2019-02-02T05:21:03.887Z,2.52
2019-02-02T05:23:34.426Z,2.52
2019-02-02T05:26:04.961Z,2.53
2019-02-02T05:28:37.451Z,2.51
2019-02-02T05:31:08.066Z,2.51
2019-02-02T05:33:40.308Z,2.52
2019-02-02T05:36:10.839Z,2.53
2019-02-02T05:38:41.385Z,2.56
2019-02-02T05:41:11.903Z,2.54
2019-02-02T05:43:42.509Z,2.50
2019-02-02T05:46:15.582Z,2.45
2019-02-02T05:48:46.142Z,2.41
2019-02-02T05:51:16.747Z,2.39
2019-02-02T05:53:47.277Z,2.39
2019-02-02T05:56:17.870Z,2.42
2019-02-02T05:58:48.441Z,2.44
2019-02-02T06:01:20.557Z,2.46
2019-02-02T06:03:51.150Z,2.49
2019-02-02T06:06:21.675Z,2.48
2019-02-02T06:08:52.238Z,2.48
2019-02-02T06:11:22.747Z,2.49
2019-02-02T06:13:53.335Z,2.47
2019-02-02T06:16:23.900Z,2.50
2019-02-02T06:18:54.450Z,2.47
2019-02-02T06:21:24.975Z,2.48
2019-02-02T06:23:55.674Z,2.52
2019-02-02T06:26:26.229Z,2.51
2019-02-02T06:28:56.851Z,2.52
2019-02-02T06:31:27.412Z,2.50
2019-02-02T06:33:57.992Z,2.50
2019-02-02T06:36:28.554Z,2.50
2019-02-02T06:38:59.132Z,2.51
2019-02-02T06:41:29.763Z,2.50
2019-02-02T06:44:00.369Z,2.51
2019-02-02T06:46:31.110Z,2.51
2019-02-02T06:49:01.754Z,2.52
2019-02-02T06:51:32.884Z,2.51
2019-02-02T06:54:03.475Z,2.51
2019-02-02T06:56:34.001Z,2.51
2019-02-02T06:59:05.498Z,2.53
2019-02-02T07:01:36.126Z,2.52
2019-02-02T07:04:06.734Z,2.48
2019-02-02T07:06:37.324Z,2.49
2019-02-02T07:09:10.124Z,2.49
2019-02-02T07:11:40.675Z,2.48
2019-02-02T07:14:11.255Z,2.44
2019-02-02T07:16:41.796Z,2.43
2019-02-02T07:19:12.519Z,2.38
2019-02-02T07:21:43.067Z,2.38
2019-02-02T07:24:13.676Z,2.42
2019-02-02T07:26:44.217Z,2.42
2019-02-02T07:29:14.830Z,2.43
2019-02-02T07:31:45.379Z,2.46
2019-02-02T07:34:16.006Z,2.48
2019-02-02T07:36:46.572Z,2.47
2019-02-02T07:39:17.233Z,2.46
2019-02-02T07:41:47.843Z,2.47
2019-02-02T07:44:18.422Z,2.48
2019-02-02T07:46:48.967Z,2.52
2019-02-02T07:49:19.522Z,2.51
2019-02-02T07:51:50.098Z,2.51
2019-02-02T07:54:20.663Z,2.50
2019-02-02T07:56:51.189Z,2.50
2019-02-02T07:59:21.773Z,2.52
2019-02-02T08:01:52.319Z,2.53
2019-02-02T08:04:22.978Z,2.55
2019-02-02T08:06:53.566Z,2.58
2019-02-02T08:09:24.116Z,2.62
2019-02-02T08:11:54.724Z,2.62
2019-02-02T08:14:25.319Z,2.64
2019-02-02T08:16:55.998Z,2.64
2019-02-02T08:19:26.518Z,2.66
2019-02-02T08:21:57.038Z,2.68
2019-02-02T08:24:27.631Z,2.70
2019-02-02T08:26:58.193Z,2.70
2019-02-02T08:29:28.710Z,2.70
2019-02-02T08:31:59.273Z,2.71
2019-02-02T08:34:29.812Z,2.74
2019-02-02T08:37:00.384Z,2.75
2019-02-02T08:39:30.934Z,2.77
2019-02-02T08:42:01.498Z,2.78
2019-02-02T08:44:32.027Z,2.80
2019-02-02T08:47:02.626Z,2.82
2019-02-02T08:49:33.194Z,2.84
2019-02-02T08:52:03.774Z,2.84
2019-02-02T08:54:34.426Z,2.88
2019-02-02T08:57:04.982Z,2.88
2019-02-02T08:59:35.652Z,2.89
2019-02-02T09:02:06.278Z,2.91
2019-02-02T09:04:36.873Z,2.94
2019-02-02T09:07:07.401Z,2.96
2019-02-02T09:09:38.076Z,3.00
2019-02-02T09:12:09.940Z,3.04
2019-02-02T09:14:40.512Z,3.07
2019-02-02T09:17:12.928Z,3.11
2019-02-02T09:19:43.634Z,3.13
2019-02-02T09:22:14.182Z,3.16
2019-02-02T09:24:44.826Z,3.18
2019-02-02T09:27:15.579Z,3.20
2019-02-02T09:29:47.836Z,3.22
2019-02-02T09:32:18.549Z,3.23
2019-02-02T09:34:49.130Z,3.26
2019-02-02T09:37:19.655Z,3.27
2019-02-02T09:39:50.856Z,3.27
2019-02-02T09:42:21.404Z,3.28
2019-02-02T09:44:51.994Z,3.32
2019-02-02T09:47:22.581Z,3.34
2019-02-02T09:49:53.206Z,3.35
2019-02-02T09:52:26.929Z,3.37
2019-02-02T09:55:01.073Z,3.41
2019-02-02T09:57:32.058Z,3.45
2019-02-02T10:00:02.619Z,3.48
2019-02-02T10:02:33.199Z,3.51
2019-02-02T10:05:03.737Z,3.53
2019-02-02T10:07:37.147Z,3.56
2019-02-02T10:10:11.071Z,3.58
2019-02-02T10:12:42.404Z,3.60
2019-02-02T10:15:13.098Z,3.63
2019-02-02T10:17:43.642Z,3.63
2019-02-02T10:20:17.880Z,3.65
2019-02-02T10:22:48.590Z,3.68
2019-02-02T10:25:23.181Z,3.71
2019-02-02T10:27:53.715Z,3.72
2019-02-02T10:30:44.617Z,3.73
2019-02-02T10:33:17.246Z,3.74
2019-02-02T10:35:47.873Z,3.76
2019-02-02T10:38:18.454Z,3.79
2019-02-02T10:40:49.042Z,3.81
2019-02-02T10:43:19.635Z,3.83
2019-02-02T10:45:50.254Z,3.87
2019-02-02T10:48:20.831Z,3.88
2019-02-02T10:50:51.401Z,3.91
2019-02-02T10:53:21.969Z,3.93
2019-02-02T10:55:52.540Z,3.93
2019-02-02T10:58:23.123Z,3.97
2019-02-02T11:00:53.822Z,3.98
2019-02-02T11:03:24.375Z,4.00
2019-02-02T11:05:54.971Z,4.05
2019-02-02T11:08:25.653Z,4.09
2019-02-02T11:10:56.376Z,4.13
2019-02-02T11:13:27.344Z,4.14
2019-02-02T11:15:57.873Z,4.18
2019-02-02T11:18:28.427Z,4.21
2019-02-02T11:20:59.004Z,4.23
2019-02-02T11:23:29.673Z,4.27
2019-02-02T11:26:00.426Z,4.29
2019-02-02T11:28:31.177Z,4.34
2019-02-02T11:31:01.715Z,4.38
2019-02-02T11:33:32.275Z,4.36
2019-02-02T11:36:02.854Z,4.31
2019-02-02T11:38:33.366Z,4.31
2019-02-02T11:41:03.919Z,4.30
2019-02-02T11:43:34.535Z,4.32
2019-02-02T11:46:05.213Z,4.32
2019-02-02T11:48:35.783Z,4.32
2019-02-02T11:51:06.313Z,4.32
2019-02-02T11:53:37.516Z,4.39
2019-02-02T11:56:08.538Z,4.43
2019-02-02T11:58:39.107Z,4.49
2019-02-02T12:01:09.679Z,4.52
2019-02-02T12:03:40.932Z,4.60
2019-02-02T12:06:11.475Z,4.60
2019-02-02T12:08:42.024Z,4.55
2019-02-02T12:11:12.605Z,4.58
2019-02-02T12:13:43.142Z,4.61
2019-02-02T12:16:13.721Z,4.61
2019-02-02T12:18:44.332Z,4.67
2019-02-02T12:21:17.719Z,4.72
2019-02-02T12:23:48.300Z,4.76
2019-02-02T12:26:18.875Z,4.81
2019-02-02T12:28:49.411Z,4.84
2019-02-02T12:31:19.955Z,4.87
2019-02-02T12:33:50.544Z,4.91
2019-02-02T12:36:21.112Z,4.90
2019-02-02T12:38:51.724Z,4.93
2019-02-02T12:41:22.308Z,4.93
2019-02-02T12:43:52.900Z,4.97
2019-02-02T12:46:23.504Z,4.96
2019-02-02T12:48:54.028Z,4.99
2019-02-02T12:51:24.579Z,5.02
2019-02-02T12:53:55.893Z,5.01
2019-02-02T12:56:27.041Z,5.04
2019-02-02T12:58:57.602Z,5.00
2019-02-02T13:01:28.224Z,5.04
2019-02-02T13:04:01.864Z,5.04
2019-02-02T13:06:31.074Z,5.06
2019-02-02T13:09:01.652Z,5.10
2019-02-02T13:11:32.379Z,5.09
2019-02-02T13:14:03.367Z,5.12
2019-02-02T13:16:36.279Z,5.12
2019-02-02T13:19:06.809Z,5.10
2019-02-02T13:21:37.395Z,5.11
2019-02-02T13:24:07.977Z,5.08
2019-02-02T13:26:38.600Z,5.07
2019-02-02T13:29:09.141Z,5.06
2019-02-02T13:31:39.724Z,5.02
2019-02-02T13:34:10.336Z,5.00
2019-02-02T13:36:40.932Z,4.97
2019-02-02T13:39:13.162Z,4.92
2019-02-02T13:41:43.746Z,4.91
2019-02-02T13:44:14.237Z,4.88
2019-02-02T13:46:45.842Z,4.88
2019-02-02T13:49:16.418Z,4.86
2019-02-02T13:51:47.008Z,4.84
2019-02-02T13:54:17.625Z,4.83
2019-02-02T13:56:49.962Z,4.80
2019-02-02T13:59:20.471Z,4.78
2019-02-02T14:01:51.024Z,4.78
2019-02-02T14:04:21.594Z,4.71
2019-02-02T14:06:52.138Z,4.68
2019-02-02T14:09:22.673Z,4.66
2019-02-02T14:11:53.232Z,4.64
2019-02-02T14:14:23.826Z,4.63
2019-02-02T14:16:54.432Z,4.60
2019-02-02T14:19:24.974Z,4.56
2019-02-02T14:21:55.588Z,4.56
2019-02-02T14:24:26.229Z,4.52
2019-02-02T14:26:56.952Z,4.47
2019-02-02T14:29:27.537Z,4.46
2019-02-02T14:31:58.073Z,4.47
2019-02-02T14:34:39.573Z,4.47
2019-02-02T14:37:00.933Z,4.48
2019-02-02T14:39:31.448Z,4.44
2019-02-02T14:42:02.054Z,4.43
2019-02-02T14:44:32.580Z,4.43
2019-02-02T14:47:03.167Z,4.44
2019-02-02T14:49:33.702Z,4.44
2019-02-02T14:52:04.294Z,4.43
2019-02-02T14:54:34.861Z,4.43
2019-02-02T14:57:05.407Z,4.39
2019-02-02T14:59:35.959Z,4.39
2019-02-02T15:02:06.615Z,4.40
2019-02-02T15:04:37.151Z,4.41
2019-02-02T15:07:07.772Z,4.40
2019-02-02T15:09:38.339Z,4.40
2019-02-02T15:12:08.943Z,4.39
2019-02-02T15:14:39.479Z,4.40
2019-02-02T15:17:10.081Z,4.38
2019-02-02T15:19:40.603Z,4.37
2019-02-02T15:22:11.188Z,4.33
2019-02-02T15:24:41.781Z,4.32
2019-02-02T15:27:14.751Z,4.28
2019-02-02T15:29:44.606Z,4.31
2019-02-02T15:32:18.168Z,4.28
2019-02-02T15:34:48.778Z,4.28
2019-02-02T15:37:20.936Z,4.27
2019-02-02T15:39:51.442Z,4.26
2019-02-02T15:42:22.025Z,4.25
2019-02-02T15:44:52.584Z,4.25
2019-02-02T15:47:23.112Z,4.24
2019-02-02T15:49:53.690Z,4.21
2019-02-02T15:52:24.230Z,4.20
2019-02-02T15:54:54.841Z,4.21
2019-02-02T15:57:25.464Z,4.19
2019-02-02T15:59:55.982Z,4.15
2019-02-02T16:02:26.543Z,4.10
2019-02-02T16:04:57.197Z,4.11
2019-02-02T16:07:27.793Z,4.11
2019-02-02T16:09:58.336Z,4.12
2019-02-02T16:12:28.944Z,4.12
2019-02-02T16:15:00.207Z,4.07
2019-02-02T16:17:30.756Z,4.04
2019-02-02T16:20:01.296Z,4.02
2019-02-02T16:22:31.902Z,4.07
2019-02-02T16:25:03.113Z,4.09
2019-02-02T16:27:36.696Z,4.09
2019-02-02T16:30:10.899Z,4.06
2019-02-02T16:32:41.473Z,4.01
2019-02-02T16:35:12.291Z,4.03
2019-02-02T16:37:42.880Z,4.07
2019-02-02T16:40:17.135Z,4.08
2019-02-02T16:42:47.712Z,4.10
2019-02-02T16:45:20.830Z,4.09
2019-02-02T16:47:54.957Z,4.09
2019-02-02T16:50:26.164Z,4.08
2019-02-02T16:52:56.734Z,4.08
2019-02-02T16:55:29.675Z,4.08
2019-02-02T16:58:03.208Z,4.08
2019-02-02T17:00:34.167Z,4.09
2019-02-02T17:03:04.806Z,4.09
2019-02-02T17:05:35.337Z,4.07
2019-02-02T17:08:06.328Z,4.07
2019-02-02T17:10:38.293Z,4.07
2019-02-02T17:13:10.628Z,4.05
2019-02-02T17:15:41.163Z,4.02
2019-02-02T17:18:11.724Z,3.98
2019-02-02T17:20:45.087Z,3.95
2019-02-02T17:23:15.634Z,3.95
2019-02-02T17:25:46.170Z,3.97
2019-02-02T17:28:16.727Z,3.97
2019-02-02T17:30:47.523Z,3.94
2019-02-02T17:33:18.379Z,3.95
2019-02-02T17:35:48.984Z,3.96
2019-02-02T17:38:19.550Z,3.92
2019-02-02T17:40:50.050Z,3.93
2019-02-02T17:43:20.628Z,3.94
2019-02-02T17:45:51.132Z,3.94
2019-02-02T17:48:21.725Z,3.91
2019-02-02T17:50:52.231Z,3.89
2019-02-02T17:53:23.870Z,3.90
2019-02-02T17:55:54.429Z,3.88
2019-02-02T17:58:24.960Z,3.89
2019-02-02T18:00:59.273Z,3.91
2019-02-02T18:03:29.903Z,3.91
2019-02-02T18:06:00.426Z,3.93
2019-02-02T18:08:30.984Z,3.92
2019-02-02T18:11:01.541Z,3.92
2019-02-02T18:13:32.104Z,3.93
2019-02-02T18:16:02.633Z,3.93
2019-02-02T18:18:34.899Z,3.89
2019-02-02T18:21:05.781Z,3.89
2019-02-02T18:23:36.398Z,3.89
2019-02-02T18:26:07.009Z,3.87
2019-02-02T18:28:37.532Z,3.86
2019-02-02T18:31:08.052Z,3.83
2019-02-02T18:33:38.609Z,3.81
2019-02-02T18:36:09.169Z,3.79
2019-02-02T18:38:39.711Z,3.78
2019-02-02T18:41:10.304Z,3.78
2019-02-02T18:43:40.982Z,3.75
2019-02-02T18:46:11.514Z,3.74
2019-02-02T18:48:42.130Z,3.69
2019-02-02T18:51:12.698Z,3.69
2019-02-02T18:53:43.190Z,3.71
2019-02-02T18:56:16.728Z,3.71
2019-02-02T18:58:47.328Z,3.72
2019-02-02T19:01:17.835Z,3.72
2019-02-02T19:03:48.382Z,3.73
2019-02-02T19:06:18.940Z,3.69
2019-02-02T19:08:49.538Z,3.69
2019-02-02T19:11:20.071Z,3.68
2019-02-02T19:13:50.604Z,3.68
2019-02-02T19:16:21.172Z,3.68
2019-02-02T19:18:51.715Z,3.64
2019-02-02T19:21:22.264Z,3.65
2019-02-02T19:23:52.936Z,3.63
2019-02-02T19:26:23.586Z,3.66
2019-02-02T19:28:58.686Z,3.64
2019-02-02T19:31:29.227Z,3.63
2019-02-02T19:33:59.816Z,3.63
2019-02-02T19:36:30.352Z,3.59
2019-02-02T19:39:00.917Z,3.59
2019-02-02T19:41:31.444Z,3.59
2019-02-02T19:44:02.031Z,3.61
2019-02-02T19:46:32.582Z,3.63
2019-02-02T19:49:03.163Z,3.62
2019-02-02T19:51:33.721Z,3.63
2019-02-02T19:54:04.407Z,3.64
2019-02-02T19:56:34.944Z,3.63
2019-02-02T19:59:05.554Z,3.61
2019-02-02T20:01:36.097Z,3.62
2019-02-02T20:04:06.936Z,3.62
2019-02-02T20:06:37.467Z,3.61
2019-02-02T20:09:10.912Z,3.61
2019-02-02T20:11:41.455Z,3.61
2019-02-02T20:14:12.054Z,3.59
2019-02-02T20:16:42.632Z,3.62
2019-02-02T20:19:13.194Z,3.60
2019-02-02T20:21:44.700Z,3.61
2019-02-02T20:24:15.306Z,3.61
2019-02-02T20:26:45.812Z,3.61
2019-02-02T20:29:16.420Z,3.60
2019-02-02T20:31:50.051Z,3.59
2019-02-02T20:34:20.575Z,3.58
2019-02-02T20:36:52.111Z,3.60
2019-02-02T20:39:22.647Z,3.60
2019-02-02T20:41:53.149Z,3.58
2019-02-02T20:44:23.759Z,3.57
2019-02-02T20:46:54.326Z,3.59
2019-02-02T20:49:24.843Z,3.59
2019-02-02T20:51:55.355Z,3.59
2019-02-02T20:54:26.217Z,3.55
2019-02-02T20:56:56.785Z,3.55
2019-02-02T20:59:27.361Z,3.51
2019-02-02T21:01:57.922Z,3.51
2019-02-02T21:04:28.494Z,3.54
2019-02-02T21:06:59.397Z,3.53
2019-02-02T21:09:29.977Z,3.54
2019-02-02T21:12:00.540Z,3.56
2019-02-02T21:14:31.134Z,3.59
2019-02-02T21:17:01.635Z,3.55
2019-02-02T21:19:32.216Z,3.59
2019-02-02T21:22:02.802Z,3.60
2019-02-02T21:24:33.374Z,3.61
2019-02-02T21:27:04.107Z,3.60
2019-02-02T21:29:34.656Z,3.60
2019-02-02T21:32:05.237Z,3.60
2019-02-02T21:34:35.757Z,3.59
2019-02-02T21:37:06.931Z,3.60
2019-02-02T21:39:37.506Z,3.62
2019-02-02T21:42:08.195Z,3.62
2019-02-02T21:44:43.352Z,3.62
2019-02-02T21:47:10.981Z,3.63
2019-02-02T21:49:41.628Z,3.62
2019-02-02T21:52:12.203Z,3.62
2019-02-02T21:54:43.463Z,3.65
2019-02-02T21:57:13.960Z,3.66
2019-02-02T21:59:44.486Z,3.66
2019-02-02T22:02:17.213Z,3.62
2019-02-02T22:04:47.761Z,3.65
2019-02-02T22:07:18.512Z,3.61
2019-02-02T22:09:49.101Z,3.64
2019-02-02T22:12:19.647Z,3.58
2019-02-02T22:14:50.225Z,3.59
2019-02-02T22:17:20.777Z,3.55
2019-02-02T22:19:51.387Z,3.55
2019-02-02T22:22:21.952Z,3.57
2019-02-02T22:24:52.530Z,3.59
2019-02-02T22:27:23.084Z,3.56
2019-02-02T22:29:53.756Z,3.57
2019-02-02T22:32:24.304Z,3.55
2019-02-02T22:34:54.924Z,3.52
2019-02-02T22:37:25.510Z,3.51
2019-02-02T22:39:56.067Z,3.54
2019-02-02T22:42:26.618Z,3.55
2019-02-02T22:44:57.167Z,3.55
2019-02-02T22:47:27.770Z,3.55
2019-02-02T22:50:00.182Z,3.50
2019-02-02T22:52:30.718Z,3.50
2019-02-02T22:55:03.856Z,3.51
2019-02-02T22:57:34.439Z,3.54
2019-02-02T23:00:11.907Z,3.53
2019-02-02T23:02:42.427Z,3.52
2019-02-02T23:06:38.815Z,3.49
2019-02-02T23:09:46.153Z,3.45
2019-02-02T23:13:09.321Z,3.43
2019-02-02T23:16:13.142Z,3.43
2019-02-02T23:18:46.653Z,3.48
2019-02-02T23:21:15.801Z,3.43
2019-02-02T23:23:46.375Z,3.39
2019-02-02T23:26:16.996Z,3.40
2019-02-02T23:28:47.518Z,3.33
2019-02-02T23:31:18.036Z,3.30
2019-02-02T23:33:48.671Z,3.30
2019-02-02T23:36:19.248Z,3.32
2019-02-02T23:38:49.832Z,3.31
2019-02-02T23:41:20.368Z,3.28
2019-02-02T23:43:50.908Z,3.27
2019-02-02T23:46:21.450Z,3.24
2019-02-02T23:48:52.021Z,3.25
2019-02-02T23:51:22.622Z,3.29
2019-02-02T23:53:53.181Z,3.31
2019-02-02T23:56:23.757Z,3.29
2019-02-02T23:58:54.302Z,3.28
